Time;durP1;ratioP1;P1;durP2;ratioP2;P2;SDS_P1;SDS_P2;PMS_P1;PMS_P2;Temp;Humidity;BMP_temperature;BMP_pressure;BME280_temperature;BME280_humidity;BME280_pressure;Samples;Min_cycle;Max_cycle;Signal;HPM_P1;HPM_P2
2023/05/15 00:02:22;;;;;;;;;;;;;;;14.09;93.13;99912.16;5091560;28;19912;-42
2023/05/15 00:04:47;;;;;;;;;;;;;;;13.66;92.78;99915.66;5091385;28;19934;-42
2023/05/15 00:07:13;;;;;;;;;;;;;;;13.37;91.76;99906.47;5091290;28;19938;-42
2023/05/15 00:09:38;;;;;;;;;;;;;;;13.85;93.34;99898.59;5090912;28;20365;-42
2023/05/15 00:12:03;;;;;;;;;;;;;;;13.95;92.09;99898.09;5091323;28;19963;-42
2023/05/15 00:14:29;;;;;;;;;;;;;;;13.28;93.76;99889.81;5091355;28;19946;-42
2023/05/15 00:16:54;;;;;;;;;;;;;;;13.08;96.58;99887.31;5091085;28;19916;-42
2023/05/15 00:19:19;;;;;;;;;;;;;;;14.10;92.79;99879.00;5091042;28;19912;-42
2023/05/15 00:21:45;;;;;;;;;;;;;;;13.55;93.00;99881.63;5090602;28;19959;-42
2023/05/15 00:24:10;;;;;;;;;;;;;;;12.92;95.58;99885.97;5091176;28;19916;-42
2023/05/15 00:26:35;;;;;;;;;;;;;;;13.76;94.13;99869.69;5090960;28;19920;-43
2023/05/15 00:29:01;;;;;;;;;;;;;;;13.52;93.33;99885.56;5091164;28;19920;-36
2023/05/15 00:31:26;;;;;;;;;;;;;;;12.87;94.32;99896.47;5091058;28;20038;-36
2023/05/15 00:33:51;;;;;;;;;;;;;;;13.47;95.16;99883.53;5091272;28;20007;-37
2023/05/15 00:36:17;;;;;;;;;;;;;;;13.65;93.23;99882.75;5090899;28;19939;-36
2023/05/15 00:38:42;;;;;;;;;;;;;;;12.79;94.83;99889.53;5091131;28;20032;-36
2023/05/15 00:41:09;;;;;;;;;;;;;;;12.81;98.46;99890.16;5090914;28;20007;-36
2023/05/15 00:43:35;;;;;;;;;;;;;;;13.58;96.28;99876.66;5090717;28;19966;-36
2023/05/15 00:46:01;;;;;;;;;;;;;;;13.00;94.29;99875.00;5090849;28;19912;-37
2023/05/15 00:48:28;;;;;;;;;;;;;;;12.74;94.95;99875.19;5090812;28;19950;-36
2023/05/15 00:50:54;;;;;;;;;;;;;;;13.77;93.49;99863.31;5090795;28;19961;-37
2023/05/15 00:53:19;;;;;;;;;;;;;;;13.60;93.37;99849.69;5090871;28;20053;-36
2023/05/15 00:55:45;;;;;;;;;;;;;;;13.26;91.33;99825.91;5090591;28;19991;-37
2023/05/15 00:58:12;;;;;;;;;;;;;;;13.54;94.25;99853.25;5090669;28;20317;-37
2023/05/15 01:00:37;;;;;;;;;;;;;;;13.84;93.73;99850.66;5090607;28;19912;-37
2023/05/15 01:03:04;;;;;;;;;;;;;;;13.10;93.81;99854.00;5090521;28;19912;-38
2023/05/15 01:05:30;;;;;;;;;;;;;;;13.17;97.35;99845.91;5090652;28;20292;-37
2023/05/15 01:08:00;;;;;;;;;;;;;;;13.91;93.87;99831.88;5090989;28;20391;-42
2023/05/15 01:10:25;;;;;;;;;;;;;;;13.36;92.69;99833.44;5091338;28;19923;-42
2023/05/15 01:12:52;;;;;;;;;;;;;;;12.71;94.95;99823.03;5091132;28;19912;-42
2023/05/15 01:15:17;;;;;;;;;;;;;;;13.72;94.04;99817.69;5090962;28;19912;-43
2023/05/15 01:17:42;;;;;;;;;;;;;;;13.24;95.45;99813.81;5091186;28;20259;-42
2023/05/15 01:20:09;;;;;;;;;;;;;;;13.03;94.27;99817.69;5091331;28;20271;-43
2023/05/15 01:22:41;;;;;;;;;;;;;;;13.72;94.28;99817.69;5090799;28;19916;-42
2023/05/15 01:25:06;;;;;;;;;;;;;;;13.32;94.85;99808.19;5091058;28;20018;-43
2023/05/15 01:27:38;;;;;;;;;;;;;;;13.41;92.73;99803.41;5090797;28;20011;-42
2023/05/15 01:30:10;;;;;;;;;;;;;;;13.63;95.99;99811.81;5090915;28;19923;-43
2023/05/15 01:32:54;;;;;;;;;;;;;;;13.78;95.02;99804.22;5093443;28;19916;-43
2023/05/15 01:35:19;;;;;;;;;;;;;;;13.51;93.30;99789.53;5093460;28;20015;-43
2023/05/15 01:37:48;;;;;;;;;;;;;;;13.40;95.84;99785.72;5095144;28;19991;-43
2023/05/15 01:40:15;;;;;;;;;;;;;;;14.02;93.44;99793.69;5095217;28;20015;-43
2023/05/15 01:42:43;;;;;;;;;;;;;;;13.47;92.33;99807.88;5094798;28;19912;-43
2023/05/15 01:45:10;;;;;;;;;;;;;;;12.93;95.36;99823.50;5094934;28;19912;-44
2023/05/15 01:47:40;;;;;;;;;;;;;;;13.73;97.11;99801.44;5094790;28;19959;-44
2023/05/15 01:50:07;;;;;;;;;;;;;;;13.59;94.36;99797.25;5094661;28;19912;-44
2023/05/15 01:52:33;;;;;;;;;;;;;;;13.43;93.42;99795.97;5094649;28;19970;-44
2023/05/15 01:55:00;;;;;;;;;;;;;;;13.57;96.71;99781.44;5094848;28;19951;-43
2023/05/15 01:57:26;;;;;;;;;;;;;;;13.89;94.70;99776.75;5094520;28;19947;-44
2023/05/15 01:59:52;;;;;;;;;;;;;;;13.30;94.08;99776.34;5094480;28;19912;-44
2023/05/15 02:02:18;;;;;;;;;;;;;;;13.42;96.63;99767.59;5094722;28;19935;-43
2023/05/15 02:04:44;;;;;;;;;;;;;;;13.79;95.13;99763.09;5094570;28;19916;-45
2023/05/15 02:07:09;;;;;;;;;;;;;;;13.26;94.33;99753.75;5094826;28;19924;-44
2023/05/15 02:09:35;;;;;;;;;;;;;;;13.04;95.58;99744.50;5094406;28;20277;-44
2023/05/15 02:12:01;;;;;;;;;;;;;;;13.84;95.13;99746.34;5094791;28;19999;-45
2023/05/15 02:14:30;;;;;;;;;;;;;;;13.24;94.55;99765.72;5094735;28;19969;-44
2023/05/15 02:16:55;;;;;;;;;;;;;;;12.86;96.54;99780.00;5094318;28;19923;-42
2023/05/15 02:19:20;;;;;;;;;;;;;;;13.19;99.32;99798.41;5094914;28;19907;-43
2023/05/15 02:21:46;;;;;;;;;;;;;;;13.30;98.29;99800.41;5094408;28;20272;-43
2023/05/15 02:24:11;;;;;;;;;;;;;;;12.98;96.64;99804.16;5094542;28;19912;-43
2023/05/15 02:26:45;;;;;;;;;;;;;;;12.91;100.00;99802.34;5093900;28;19920;-44
2023/05/15 02:29:27;;;;;;;;;;;;;;;13.75;96.78;99790.50;5094452;28;20018;-44
2023/05/15 02:32:01;;;;;;;;;;;;;;;13.38;95.12;99767.22;5099102;28;20006;-44
2023/05/15 02:34:33;;;;;;;;;;;;;;;13.26;95.68;99771.66;5094281;28;19948;-44
2023/05/15 02:37:00;;;;;;;;;;;;;;;14.08;94.38;99798.13;5094435;28;20295;-43
2023/05/15 02:39:26;;;;;;;;;;;;;;;13.36;93.71;99797.91;5093983;28;19916;-43
2023/05/15 02:41:51;;;;;;;;;;;;;;;12.71;95.16;99791.81;5093838;28;19912;-43
2023/05/15 02:44:17;;;;;;;;;;;;;;;13.65;95.64;99782.97;5092728;28;19912;-44
2023/05/15 02:46:43;;;;;;;;;;;;;;;13.09;96.60;99766.03;5093686;28;20329;-43
2023/05/15 02:49:09;;;;;;;;;;;;;;;12.75;97.88;99778.84;5093733;28;19919;-43
2023/05/15 02:51:35;;;;;;;;;;;;;;;12.93;100.00;99772.75;5093827;28;19980;-44
2023/05/15 02:54:01;;;;;;;;;;;;;;;13.37;96.70;99770.16;5093916;28;20405;-43
2023/05/15 02:56:26;;;;;;;;;;;;;;;12.69;96.64;99772.50;5093635;28;20003;-44
2023/05/15 02:58:52;;;;;;;;;;;;;;;12.80;99.18;99772.88;5113480;28;20009;-44
2023/05/15 03:01:17;;;;;;;;;;;;;;;13.74;95.13;99772.81;5113864;28;20368;-44
2023/05/15 03:03:42;;;;;;;;;;;;;;;13.24;94.43;99763.03;5114134;28;20016;-44
2023/05/15 03:06:07;;;;;;;;;;;;;;;12.63;96.25;99764.56;5113710;28;19912;-44
2023/05/15 03:08:33;;;;;;;;;;;;;;;13.24;98.45;99769.19;5113460;28;20394;-43
2023/05/15 03:10:58;;;;;;;;;;;;;;;13.61;95.34;99781.81;5108614;28;20006;-43
2023/05/15 03:13:23;;;;;;;;;;;;;;;12.69;96.25;99785.88;5083616;28;20367;-43
2023/05/15 03:15:49;;;;;;;;;;;;;;;12.51;99.87;99775.94;5080729;28;19928;-44
2023/05/15 03:18:14;;;;;;;;;;;;;;;13.69;96.20;99770.81;5093582;28;19963;-42
2023/05/15 03:20:39;;;;;;;;;;;;;;;12.89;96.80;99776.91;5093253;28;19912;-42
2023/05/15 03:23:04;;;;;;;;;;;;;;;12.47;97.23;99769.41;5093335;28;19920;-42
2023/05/15 03:25:30;;;;;;;;;;;;;;;13.11;98.34;99759.44;5092836;28;20014;-43
2023/05/15 03:27:55;;;;;;;;;;;;;;;13.28;96.77;99754.34;5091917;28;20394;-42
2023/05/15 03:30:20;;;;;;;;;;;;;;;12.77;96.57;99762.59;5091588;28;19912;-42
2023/05/15 03:32:46;;;;;;;;;;;;;;;12.87;100.00;99773.59;5090412;28;19923;-42
2023/05/15 03:35:11;;;;;;;;;;;;;;;13.56;98.97;99762.97;5091536;28;20291;-43
2023/05/15 03:37:36;;;;;;;;;;;;;;;12.96;97.64;99771.50;5091859;28;20045;-41
2023/05/15 03:40:02;;;;;;;;;;;;;;;12.41;98.84;99772.91;5091890;28;19965;-42
2023/05/15 03:42:28;;;;;;;;;;;;;;;13.48;98.35;99772.09;5091338;28;20645;-42
2023/05/15 03:44:54;;;;;;;;;;;;;;;13.09;99.00;99766.84;5091452;28;19912;-44
2023/05/15 03:47:20;;;;;;;;;;;;;;;12.55;99.13;99764.84;5091337;28;20384;-43
2023/05/15 03:49:45;;;;;;;;;;;;;;;12.93;100.00;99762.06;5092265;28;19941;-44
2023/05/15 03:52:11;;;;;;;;;;;;;;;13.59;99.15;99755.28;5091663;28;19926;-43
2023/05/15 03:54:36;;;;;;;;;;;;;;;13.07;96.79;99762.78;5091667;28;20015;-43
2023/05/15 03:57:03;;;;;;;;;;;;;;;12.77;98.58;99771.44;5091712;28;20380;-42
2023/05/15 03:59:28;;;;;;;;;;;;;;;13.69;98.29;99779.66;5092214;28;19916;-42
2023/05/15 04:01:54;;;;;;;;;;;;;;;13.30;98.01;99775.53;5092113;28;19919;-43
2023/05/15 04:04:19;;;;;;;;;;;;;;;13.03;97.14;99775.75;5091844;28;20372;-42
2023/05/15 04:06:45;;;;;;;;;;;;;;;13.51;98.78;99768.13;5091931;28;19927;-43
2023/05/15 04:09:10;;;;;;;;;;;;;;;13.74;97.38;99770.94;5092071;28;20003;-43
2023/05/15 04:11:35;;;;;;;;;;;;;;;13.22;97.19;99768.59;5091980;28;19935;-42
2023/05/15 04:14:01;;;;;;;;;;;;;;;13.01;100.00;99759.13;5092247;28;19942;-44
2023/05/15 04:16:26;;;;;;;;;;;;;;;14.18;100.00;99749.41;5092354;28;19912;-43
2023/05/15 04:18:51;;;;;;;;;;;;;;;15.37;97.40;99756.63;5091844;28;20001;-44
2023/05/15 04:21:17;;;;;;;;;;;;;;;16.25;92.47;99762.72;5092068;28;20333;-42
2023/05/15 04:23:42;;;;;;;;;;;;;;;16.93;87.95;99752.91;5091777;28;19912;-42
2023/05/15 04:26:08;;;;;;;;;;;;;;;17.76;84.55;99754.84;5091580;28;20391;-43
2023/05/15 04:28:33;;;;;;;;;;;;;;;18.41;81.94;99755.88;5091579;28;19920;-43
2023/05/15 04:30:58;;;;;;;;;;;;;;;18.17;76.83;99764.25;5091732;28;19941;-43
2023/05/15 04:33:24;;;;;;;;;;;;;;;18.20;77.41;99771.03;5091898;28;19976;-43
2023/05/15 04:35:49;;;;;;;;;;;;;;;18.35;76.61;99776.56;5091575;28;19935;-42
2023/05/15 04:38:15;;;;;;;;;;;;;;;18.86;72.83;99770.84;5091561;28;19998;-44
2023/05/15 04:40:40;;;;;;;;;;;;;;;19.03;70.14;99772.59;5091417;28;19935;-42
2023/05/15 04:43:05;;;;;;;;;;;;;;;19.02;69.22;99777.19;5091782;28;19928;-43
2023/05/15 04:45:31;;;;;;;;;;;;;;;19.05;66.24;99776.66;5092337;28;19935;-43
2023/05/15 04:47:56;;;;;;;;;;;;;;;19.05;66.94;99779.34;5091778;28;20347;-42
2023/05/15 04:50:21;;;;;;;;;;;;;;;19.03;66.36;99786.09;5091225;28;20299;-44
2023/05/15 04:52:47;;;;;;;;;;;;;;;18.77;65.62;99791.22;5089807;28;19912;-44
2023/05/15 04:55:12;;;;;;;;;;;;;;;18.66;65.02;99768.78;5091074;28;19919;-42
2023/05/15 04:57:38;;;;;;;;;;;;;;;18.71;65.95;99794.94;5090505;28;19912;-41
2023/05/15 05:00:10;;;;;;;;;;;;;;;18.55;68.04;99794.00;5089314;28;19951;-42
2023/05/15 05:02:36;;;;;;;;;;;;;;;18.43;67.96;99793.31;5090219;28;19969;-42
2023/05/15 05:05:01;;;;;;;;;;;;;;;18.47;67.96;99789.06;5091081;28;19931;-42
2023/05/15 05:07:27;;;;;;;;;;;;;;;18.34;69.26;99790.28;5090233;28;20233;-42
2023/05/15 05:09:52;;;;;;;;;;;;;;;18.00;69.68;99789.63;5089583;28;20374;-41
2023/05/15 05:12:17;;;;;;;;;;;;;;;18.01;69.08;99793.94;5109927;28;20006;-42
2023/05/15 05:14:43;;;;;;;;;;;;;;;18.02;69.04;99787.50;5110483;28;20280;-41
2023/05/15 05:17:09;;;;;;;;;;;;;;;18.08;67.70;99787.28;5110989;28;19923;-42
2023/05/15 05:19:34;;;;;;;;;;;;;;;18.04;69.10;99782.69;5111097;28;19927;-42
2023/05/15 05:22:03;;;;;;;;;;;;;;;18.08;68.72;99787.28;5110805;28;19912;-41
2023/05/15 05:24:28;;;;;;;;;;;;;;;18.24;68.96;99796.38;5110963;28;19912;-43
2023/05/15 05:26:56;;;;;;;;;;;;;;;18.44;67.88;99794.97;5110945;28;20006;-41
2023/05/15 05:29:24;;;;;;;;;;;;;;;18.62;67.75;99788.38;5109349;28;20305;-42
2023/05/15 05:31:49;;;;;;;;;;;;;;;18.65;68.27;99790.59;5108661;28;19916;-42
2023/05/15 05:34:14;;;;;;;;;;;;;;;18.64;68.87;99787.09;5108383;28;19931;-42
2023/05/15 05:36:40;;;;;;;;;;;;;;;18.86;66.65;99791.59;5109526;28;19912;-42
2023/05/15 05:39:05;;;;;;;;;;;;;;;18.78;65.65;99782.06;5110265;28;19962;-41
2023/05/15 05:41:31;;;;;;;;;;;;;;;18.64;67.06;99789.78;5110456;28;20006;-41
2023/05/15 05:43:56;;;;;;;;;;;;;;;18.80;67.08;99789.91;5110016;28;19919;-40
2023/05/15 05:46:21;;;;;;;;;;;;;;;18.90;67.79;99803.50;5110834;28;19950;-42
2023/05/15 05:48:46;;;;;;;;;;;;;;;19.01;67.41;99796.31;5110392;28;20290;-42
2023/05/15 05:51:12;;;;;;;;;;;;;;;19.16;65.44;99791.03;5110424;28;19918;-43
2023/05/15 05:53:37;;;;;;;;;;;;;;;19.36;65.50;99795.75;5092346;28;20341;-41
2023/05/15 05:56:02;;;;;;;;;;;;;;;19.49;65.43;99797.16;5090293;28;19908;-43
2023/05/15 05:58:27;;;;;;;;;;;;;;;19.55;64.71;99804.22;5090334;28;20061;-42
2023/05/15 06:00:53;;;;;;;;;;;;;;;19.73;64.10;99789.50;5090839;28;19912;-41
2023/05/15 06:03:19;;;;;;;;;;;;;;;19.78;63.68;99792.25;5090390;28;20375;-42
2023/05/15 06:05:45;;;;;;;;;;;;;;;19.59;63.69;99791.00;5090672;28;19916;-40
2023/05/15 06:08:10;;;;;;;;;;;;;;;19.69;61.82;99786.50;5090310;28;20256;-41
2023/05/15 06:10:36;;;;;;;;;;;;;;;19.79;61.82;99790.34;5090318;28;20061;-41
2023/05/15 06:13:01;;;;;;;;;;;;;;;19.74;61.21;99791.13;5090159;28;20312;-41
2023/05/15 06:15:26;;;;;;;;;;;;;;;19.58;61.92;99797.50;5090060;28;19919;-40
2023/05/15 06:17:52;;;;;;;;;;;;;;;19.39;62.42;99819.50;5090236;28;19912;-41
2023/05/15 06:20:17;;;;;;;;;;;;;;;19.14;63.61;99804.78;5093759;28;19912;-42
2023/05/15 06:22:42;;;;;;;;;;;;;;;19.38;64.07;99790.91;5094134;28;19912;-42
2023/05/15 06:25:12;;;;;;;;;;;;;;;19.67;63.87;99788.63;5093724;28;19918;-42
2023/05/15 06:27:38;;;;;;;;;;;;;;;19.66;61.89;99784.31;5094007;28;19924;-43
2023/05/15 06:30:03;;;;;;;;;;;;;;;19.78;61.68;99786.84;5094121;28;19980;-41
2023/05/15 06:32:29;;;;;;;;;;;;;;;19.99;61.07;99776.09;5093942;28;19927;-43
2023/05/15 06:34:55;;;;;;;;;;;;;;;20.00;60.57;99765.03;5093546;28;19920;-42
2023/05/15 06:37:20;;;;;;;;;;;;;;;19.95;60.38;99773.13;5093843;28;19912;-42
2023/05/15 06:39:45;;;;;;;;;;;;;;;19.45;62.38;99766.38;5094044;28;19924;-42
2023/05/15 06:42:11;;;;;;;;;;;;;;;19.17;62.63;99776.47;5093721;28;19912;-43
2023/05/15 06:44:36;;;;;;;;;;;;;;;18.98;62.88;99780.63;5093364;28;19962;-42
2023/05/15 06:47:01;;;;;;;;;;;;;;;18.93;62.11;99781.44;5093393;28;19916;-42
2023/05/15 06:49:26;;;;;;;;;;;;;;;18.88;62.24;99774.09;5093736;28;20006;-43
2023/05/15 06:51:53;;;;;;;;;;;;;;;18.94;61.64;99769.56;5093388;28;19912;-40
2023/05/15 06:54:19;;;;;;;;;;;;;;;19.05;62.01;99778.53;5093621;28;20299;-42
2023/05/15 06:56:44;;;;;;;;;;;;;;;19.10;62.26;99778.59;5093631;28;19912;-44
2023/05/15 06:59:09;;;;;;;;;;;;;;;19.26;62.21;99779.50;5093422;28;19968;-43
2023/05/15 07:01:35;;;;;;;;;;;;;;;19.27;61.57;99773.84;5093005;28;19916;-42
2023/05/15 07:04:00;;;;;;;;;;;;;;;18.97;62.35;99769.03;5093215;28;19935;-43
2023/05/15 07:06:25;;;;;;;;;;;;;;;18.86;63.83;99759.25;5093108;28;20420;-39
2023/05/15 07:08:51;;;;;;;;;;;;;;;19.02;62.04;99765.56;5093173;28;19978;-42
2023/05/15 07:11:16;;;;;;;;;;;;;;;18.96;61.62;99759.31;5093248;28;19968;-41
2023/05/15 07:13:41;;;;;;;;;;;;;;;19.01;61.84;99762.06;5092847;28;19916;-42
2023/05/15 07:16:06;;;;;;;;;;;;;;;19.08;62.44;99765.34;5092867;28;19920;-42
2023/05/15 07:18:32;;;;;;;;;;;;;;;19.28;61.55;99774.66;5092899;28;19990;-42
2023/05/15 07:20:57;;;;;;;;;;;;;;;19.22;61.56;99770.31;5092832;28;20285;-41
2023/05/15 07:23:22;;;;;;;;;;;;;;;19.24;61.27;99770.84;5093255;28;19908;-41
2023/05/15 07:25:47;;;;;;;;;;;;;;;19.42;60.90;99770.44;5092980;28;19920;-42
2023/05/15 07:28:13;;;;;;;;;;;;;;;19.50;59.56;99767.22;5092434;28;20400;-42
2023/05/15 07:30:38;;;;;;;;;;;;;;;19.60;59.70;99757.56;5092977;28;19912;-41
2023/05/15 07:33:03;;;;;;;;;;;;;;;19.68;59.98;99757.06;5092771;28;20346;-41
2023/05/15 07:35:29;;;;;;;;;;;;;;;19.57;61.29;99747.28;5092397;28;19943;-43
2023/05/15 07:37:54;;;;;;;;;;;;;;;19.56;60.00;99745.69;5092612;28;20225;-42
2023/05/15 07:40:19;;;;;;;;;;;;;;;19.50;59.59;99745.63;5092606;28;19912;-43
2023/05/15 07:42:45;;;;;;;;;;;;;;;19.69;59.02;99746.00;5091913;28;20025;-42
2023/05/15 07:45:11;;;;;;;;;;;;;;;19.39;60.13;99748.56;5091476;28;19912;-42
2023/05/15 07:47:36;;;;;;;;;;;;;;;19.50;59.48;99748.34;5092275;28;19966;-42
2023/05/15 07:50:02;;;;;;;;;;;;;;;19.64;58.76;99745.97;5092410;28;19916;-41
2023/05/15 07:52:27;;;;;;;;;;;;;;;19.79;56.96;99739.06;5092015;28;20458;-43
2023/05/15 07:54:52;;;;;;;;;;;;;;;19.18;58.99;99748.44;5092499;28;20320;-42
2023/05/15 07:57:18;;;;;;;;;;;;;;;19.12;58.13;99761.06;5092060;28;19935;-41
2023/05/15 07:59:43;;;;;;;;;;;;;;;19.38;57.67;99758.53;5092200;28;20376;-41
2023/05/15 08:02:08;;;;;;;;;;;;;;;18.79;59.83;99759.47;5092071;28;20264;-42
2023/05/15 08:04:33;;;;;;;;;;;;;;;19.05;59.36;99768.56;5092149;28;20050;-43
2023/05/15 08:06:59;;;;;;;;;;;;;;;19.31;60.26;99766.03;5092104;28;19939;-42
2023/05/15 08:09:24;;;;;;;;;;;;;;;19.48;59.83;99782.88;5092471;28;20022;-43
2023/05/15 08:11:49;;;;;;;;;;;;;;;19.79;57.94;99780.34;5092166;28;19955;-41
2023/05/15 08:14:14;;;;;;;;;;;;;;;19.93;58.56;99786.06;5091624;28;20308;-41
2023/05/15 08:16:40;;;;;;;;;;;;;;;20.33;59.00;99789.97;5091719;28;19919;-41
2023/05/15 08:19:06;;;;;;;;;;;;;;;20.64;58.14;99787.38;5091741;28;20014;-41
2023/05/15 08:21:32;;;;;;;;;;;;;;;20.94;57.67;99791.97;5091370;28;19919;-41
2023/05/15 08:23:58;;;;;;;;;;;;;;;20.94;56.03;99783.84;5091754;28;19913;-41
2023/05/15 08:26:23;;;;;;;;;;;;;;;20.91;54.41;99789.81;5091563;28;19922;-41
2023/05/15 08:28:49;;;;;;;;;;;;;;;20.70;54.90;99773.56;5091580;28;19965;-41
2023/05/15 08:31:15;;;;;;;;;;;;;;;20.37;54.48;99774.03;5091597;28;20011;-41
2023/05/15 08:33:40;;;;;;;;;;;;;;;20.26;55.52;99774.03;5091126;28;19912;-41
2023/05/15 08:36:05;;;;;;;;;;;;;;;20.07;56.70;99772.91;5091477;28;20422;-43
2023/05/15 08:38:30;;;;;;;;;;;;;;;19.98;56.13;99775.28;5091431;28;19992;-42
2023/05/15 08:40:57;;;;;;;;;;;;;;;20.48;54.96;99771.09;5091041;28;19912;-41
2023/05/15 08:43:24;;;;;;;;;;;;;;;20.72;53.77;99775.22;5091183;28;19912;-40
2023/05/15 08:45:49;;;;;;;;;;;;;;;20.83;53.68;99774.13;5090809;28;20382;-41
2023/05/15 08:48:16;;;;;;;;;;;;;;;20.45;55.01;99765.44;5091477;28;19933;-42
2023/05/15 08:50:43;;;;;;;;;;;;;;;20.22;56.07;99769.41;5091332;28;19964;-40
2023/05/15 08:53:09;;;;;;;;;;;;;;;20.66;55.19;99760.88;5091113;28;19919;-41
2023/05/15 08:55:34;;;;;;;;;;;;;;;20.61;54.61;99761.69;5091023;28;19912;-41
2023/05/15 08:58:00;;;;;;;;;;;;;;;20.59;54.39;99755.69;5091059;28;19922;-42
2023/05/15 09:00:26;;;;;;;;;;;;;;;20.75;53.75;99748.41;5091072;28;19987;-41
2023/05/15 09:02:52;;;;;;;;;;;;;;;20.82;53.50;99740.06;5091038;28;19911;-41
2023/05/15 09:05:17;;;;;;;;;;;;;;;21.04;52.60;99740.56;5090947;28;19919;-41
2023/05/15 09:07:43;;;;;;;;;;;;;;;21.17;52.86;99736.50;5091245;28;20291;-41
2023/05/15 09:10:09;;;;;;;;;;;;;;;21.50;52.87;99722.63;5090820;28;19920;-41
2023/05/15 09:12:35;;;;;;;;;;;;;;;21.33;53.03;99728.34;5090944;28;19916;-41
2023/05/15 09:15:16;;;;;;;;;;;;;;;21.36;52.52;99719.66;5090916;28;20384;-42
2023/05/15 09:17:42;;;;;;;;;;;;;;;21.48;52.02;99720.19;5090610;28;19912;-40
2023/05/15 09:20:23;;;;;;;;;;;;;;;21.40;51.99;99716.13;5090675;28;20237;-40
2023/05/15 09:22:48;;;;;;;;;;;;;;;21.62;52.71;99709.59;5090526;28;19912;-41
2023/05/15 09:25:30;;;;;;;;;;;;;;;21.60;53.05;99701.72;5090627;28;20010;-43
2023/05/15 09:27:56;;;;;;;;;;;;;;;21.52;51.74;99707.72;5090362;28;20438;-42
2023/05/15 09:30:21;;;;;;;;;;;;;;;21.52;51.61;99705.03;5090541;28;19916;-43
2023/05/15 09:32:47;;;;;;;;;;;;;;;20.99;53.32;99713.53;5090793;28;19912;-41
2023/05/15 09:35:32;;;;;;;;;;;;;;;21.55;52.24;99717.19;5090424;28;19919;-40
2023/05/15 09:38:01;;;;;;;;;;;;;;;21.60;53.73;99717.16;5090713;28;20002;-40
2023/05/15 09:40:30;;;;;;;;;;;;;;;21.75;52.83;99711.69;5090569;28;20387;-41
2023/05/15 09:42:56;;;;;;;;;;;;;;;22.08;52.56;99712.03;5090537;28;20437;-41
2023/05/15 09:45:24;;;;;;;;;;;;;;;22.27;52.21;99709.50;5090622;28;19912;-40
2023/05/15 09:47:49;;;;;;;;;;;;;;;22.48;51.66;99702.03;5090382;28;19916;-41
2023/05/15 09:50:19;;;;;;;;;;;;;;;22.67;50.87;99704.06;5090661;28;19935;-41
2023/05/15 09:52:44;;;;;;;;;;;;;;;22.75;50.55;99690.69;5090236;28;19970;-41
2023/05/15 09:55:15;;;;;;;;;;;;;;;22.78;48.87;99698.25;5094257;28;20341;-41
2023/05/15 09:57:41;;;;;;;;;;;;;;;22.60;49.43;99682.72;5094513;28;19916;-41
2023/05/15 10:00:10;;;;;;;;;;;;;;;22.59;49.92;99671.03;5094562;28;19916;-39
2023/05/15 10:02:38;;;;;;;;;;;;;;;22.79;49.69;99672.75;5092814;28;20015;-40
2023/05/15 10:05:04;;;;;;;;;;;;;;;22.98;49.66;99666.59;5094544;28;19953;-40
2023/05/15 10:07:30;;;;;;;;;;;;;;;23.01;49.02;99664.09;5094107;28;19916;-40
2023/05/15 10:09:55;;;;;;;;;;;;;;;22.34;50.16;99665.84;5093811;28;19984;-41
2023/05/15 10:12:22;;;;;;;;;;;;;;;22.36;48.73;99663.66;5094058;28;19981;-42
2023/05/15 10:14:47;;;;;;;;;;;;;;;22.26;48.64;99667.25;5094057;28;19912;-40
2023/05/15 10:17:13;;;;;;;;;;;;;;;22.16;49.37;99657.28;5093912;28;19920;-41
2023/05/15 10:19:39;;;;;;;;;;;;;;;22.60;49.53;99650.97;5094566;28;20002;-41
2023/05/15 10:22:04;;;;;;;;;;;;;;;23.10;49.29;99642.63;5094194;28;20290;-41
2023/05/15 10:24:31;;;;;;;;;;;;;;;23.13;48.38;99646.66;5093750;28;19934;-41
2023/05/15 10:26:57;;;;;;;;;;;;;;;23.39;47.68;99647.16;5093616;28;19955;-41
2023/05/15 10:29:25;;;;;;;;;;;;;;;23.46;47.50;99644.09;5093744;28;19916;-42
2023/05/15 10:31:51;;;;;;;;;;;;;;;23.55;47.88;99651.28;5094474;28;20302;-42
2023/05/15 10:34:17;;;;;;;;;;;;;;;23.78;47.54;99643.38;5094101;28;20415;-42
2023/05/15 10:36:43;;;;;;;;;;;;;;;24.17;46.84;99643.06;5093966;28;20003;-42
2023/05/15 10:39:09;;;;;;;;;;;;;;;24.29;47.12;99639.09;5093863;28;20341;-41
2023/05/15 10:41:38;;;;;;;;;;;;;;;24.40;47.06;99644.06;5093466;28;19919;-43
2023/05/15 10:44:03;;;;;;;;;;;;;;;24.03;46.47;99631.34;5093724;28;20014;-41
2023/05/15 10:46:30;;;;;;;;;;;;;;;24.41;46.01;99634.00;5093606;28;20002;-42
2023/05/15 10:48:56;;;;;;;;;;;;;;;24.74;45.59;99625.81;5093334;28;19966;-41
2023/05/15 10:51:26;;;;;;;;;;;;;;;24.60;43.65;99628.53;5093315;28;20033;-39
2023/05/15 10:53:51;;;;;;;;;;;;;;;24.22;44.20;99636.75;5093224;28;19951;-41
2023/05/15 10:56:17;;;;;;;;;;;;;;;24.09;46.48;99632.88;5090151;28;19955;-40
2023/05/15 10:58:49;;;;;;;;;;;;;;;24.64;46.13;99628.75;5091113;28;19939;-42
2023/05/15 11:01:27;;;;;;;;;;;;;;;24.81;45.12;99636.31;5092620;28;20381;-41
2023/05/15 11:04:11;;;;;;;;;;;;;;;24.16;45.43;99619.72;5092459;28;19970;-43
2023/05/15 11:06:37;;;;;;;;;;;;;;;24.18;44.63;99625.66;5093038;28;20015;-41
2023/05/15 11:09:20;;;;;;;;;;;;;;;24.43;44.82;99630.97;5092754;28;20002;-41
2023/05/15 11:11:59;;;;;;;;;;;;;;;24.48;45.42;99622.72;5092152;28;19916;-41
2023/05/15 11:14:25;;;;;;;;;;;;;;;25.02;45.29;99623.94;5091835;28;19916;-41
2023/05/15 11:16:53;;;;;;;;;;;;;;;25.26;44.99;99623.72;5092580;28;19955;-41
2023/05/15 11:19:23;;;;;;;;;;;;;;;25.54;44.26;99613.59;5092684;28;19912;-40
2023/05/15 11:22:06;;;;;;;;;;;;;;;25.93;43.41;99619.56;5092440;28;20291;-42
2023/05/15 11:24:45;;;;;;;;;;;;;;;26.20;42.29;99629.56;5091339;28;20025;-41
2023/05/15 11:27:12;;;;;;;;;;;;;;;26.42;42.15;99625.19;5092192;28;19994;-41
2023/05/15 11:29:57;;;;;;;;;;;;;;;26.54;41.89;99628.16;5092658;28;19928;-41
2023/05/15 11:32:51;;;;;;;;;;;;;;;26.26;42.14;99631.03;5090873;28;19968;-41
2023/05/15 11:35:17;;;;;;;;;;;;;;;26.42;41.81;99622.47;5082780;28;19939;-42
2023/05/15 11:37:43;;;;;;;;;;;;;;;25.48;42.48;99631.19;5092223;28;19920;-40
2023/05/15 11:40:12;;;;;;;;;;;;;;;25.56;42.31;99635.91;5092155;28;20002;-42
2023/05/15 11:42:37;;;;;;;;;;;;;;;25.09;43.81;99640.69;5092499;28;19969;-41
2023/05/15 11:45:03;;;;;;;;;;;;;;;25.24;43.48;99625.16;5092340;28;19912;-42
2023/05/15 11:47:30;;;;;;;;;;;;;;;25.30;43.20;99627.47;5092219;28;19920;-40
2023/05/15 11:49:55;;;;;;;;;;;;;;;24.76;44.22;99631.78;5089426;28;19919;-41
2023/05/15 11:52:21;;;;;;;;;;;;;;;25.10;44.22;99628.66;5091978;28;19916;-41
2023/05/15 11:54:46;;;;;;;;;;;;;;;25.07;43.26;99623.00;5091202;28;19939;-42
2023/05/15 11:57:11;;;;;;;;;;;;;;;23.31;47.98;99599.75;5091726;28;19916;-41
2023/05/15 11:59:37;;;;;;;;;;;;;;;23.60;46.88;99596.09;5091658;28;19912;-41
2023/05/15 12:02:04;;;;;;;;;;;;;;;22.96;48.02;99599.06;5091699;28;20372;-40
2023/05/15 12:04:32;;;;;;;;;;;;;;;23.70;47.18;99619.56;5092251;28;19920;-42
2023/05/15 12:07:00;;;;;;;;;;;;;;;24.12;46.34;99632.31;5091981;28;19917;-41
2023/05/15 12:09:27;;;;;;;;;;;;;;;24.55;45.61;99632.13;5091827;28;19916;-41
2023/05/15 12:11:53;;;;;;;;;;;;;;;24.47;45.47;99604.81;5092743;28;20008;-41
2023/05/15 12:14:28;;;;;;;;;;;;;;;24.25;44.64;99614.41;5092419;28;19944;-41
2023/05/15 12:16:56;;;;;;;;;;;;;;;23.99;45.85;99649.34;5091375;28;19918;-42
2023/05/15 12:19:32;;;;;;;;;;;;;;;23.05;48.31;99641.84;5092388;28;19919;-41
2023/05/15 12:21:57;;;;;;;;;;;;;;;23.32;47.85;99642.09;5091772;28;20421;-42
2023/05/15 12:24:23;;;;;;;;;;;;;;;23.66;46.53;99637.56;5092233;28;19912;-41
2023/05/15 12:26:48;;;;;;;;;;;;;;;23.71;46.12;99640.22;5091936;28;20344;-39
2023/05/15 12:29:14;;;;;;;;;;;;;;;23.67;45.84;99629.13;5110264;28;19920;-37
2023/05/15 12:31:40;;;;;;;;;;;;;;;23.67;46.04;99618.25;5110414;28;20010;-37
2023/05/15 12:34:05;;;;;;;;;;;;;;;23.41;47.05;99620.50;5087708;28;20269;-36
2023/05/15 12:36:30;;;;;;;;;;;;;;;23.80;46.01;99633.88;5070786;28;20355;-36
2023/05/15 12:38:56;;;;;;;;;;;;;;;24.14;45.31;99631.97;5078127;28;19916;-36
2023/05/15 12:41:26;;;;;;;;;;;;;;;24.46;44.62;99624.94;5091464;28;19912;-36
2023/05/15 12:43:51;;;;;;;;;;;;;;;24.57;44.09;99618.25;5090996;28;19923;-37